In Rescue
 
Open Full Screen Window  High Contrast Mode
June 26, 2019 9:53 PM EDT
Weather Information
Wind Direction
  ---
Wind Speed
  00 kt (0 mph)
Wind Gust
  00 kt (0 mph)
Altimeter
30.07 in
Visibility
10 SM
Temperature
24° C
75° F
Dewpoint
14° C
57° F
Humidity
54%
1hr Rain Fall
00.00 in.
24hr Rain Fall
00.00 in.
Sky Condition
Clear
VFR

METAR KONZ 270153Z AUTO 00000KT 10SM CLR 24/14 A3007 RMK AO2 T02400140

FAA Disclaimer: The data displayed is for advisory purposes only and is not to be used for flight planning or operations.